Time;durP1;ratioP1;P1;durP2;ratioP2;P2;SDS_P1;SDS_P2;PMS_P1;PMS_P2;Temp;Humidity;BMP_temperature;BMP_pressure;BME280_temperature;BME280_humidity;BME280_pressure;Samples;Min_cycle;Max_cycle;Signal;HPM_P1;HPM_P2
2022/02/28 00:02:01;;;;;;;16.80;9.40;;;;;;;3.57;55.20;101514.69;5111105;28;20020;-72
2022/02/28 00:04:26;;;;;;;15.77;9.10;;;;;;;3.48;55.49;101499.19;5111812;28;20706;-77
2022/02/28 00:06:55;;;;;;;18.55;9.95;;;;;;;3.53;55.74;101507.81;5100563;28;20031;-78
2022/02/28 00:09:21;;;;;;;19.13;10.18;;;;;;;3.49;55.97;101500.91;5112450;28;20023;-77
2022/02/28 00:11:47;;;;;;;17.90;9.80;;;;;;;3.49;55.53;101493.81;5112851;28;20035;-77
2022/02/28 00:14:12;;;;;;;16.48;9.38;;;;;;;3.46;55.86;101490.41;5112465;28;20711;-78
2022/02/28 00:16:39;;;;;;;17.77;9.10;;;;;;;3.47;56.00;101493.00;5112201;28;20066;-77
2022/02/28 00:19:05;;;;;;;19.52;9.18;;;;;;;3.45;56.11;101488.69;5112199;28;20065;-77
2022/02/28 00:21:30;;;;;;;17.65;9.45;;;;;;;3.45;55.77;101486.88;5105651;28;20047;-78
2022/02/28 00:23:56;;;;;;;18.35;9.00;;;;;;;3.39;55.80;101478.34;5103067;28;20032;-77
2022/02/28 00:26:21;;;;;;;16.67;9.07;;;;;;;3.37;56.09;101477.50;5111838;28;20133;-70
2022/02/28 00:28:47;;;;;;;16.67;9.40;;;;;;;3.29;55.95;101475.16;5111325;28;20031;-71
2022/02/28 00:31:12;;;;;;;19.45;10.48;;;;;;;3.32;56.07;101471.56;5110867;28;20077;-72
2022/02/28 00:33:38;;;;;;;17.42;9.15;;;;;;;3.38;56.04;101481.88;5110959;28;20032;-71
2022/02/28 00:36:04;;;;;;;20.30;9.25;;;;;;;3.40;55.83;101483.56;5110656;28;20023;-71
2022/02/28 00:38:30;;;;;;;15.98;8.93;;;;;;;3.40;55.99;101477.41;5110921;28;20488;-71
2022/02/28 00:40:56;;;;;;;16.98;9.40;;;;;;;3.42;55.98;101476.41;5098465;28;20024;-71
2022/02/28 00:43:21;;;;;;;16.25;9.02;;;;;;;3.36;56.18;101467.84;5110288;28;20023;-71
2022/02/28 00:45:47;;;;;;;17.98;9.02;;;;;;;3.36;56.12;101459.91;5110948;27;20031;-70
2022/02/28 00:48:12;;;;;;;18.20;9.00;;;;;;;3.42;56.15;101471.09;5110401;28;20035;-77
2022/02/28 00:50:38;;;;;;;20.20;9.02;;;;;;;3.36;56.23;101460.78;5109301;28;20165;-72
2022/02/28 00:53:03;;;;;;;16.10;8.50;;;;;;;3.46;55.91;101466.56;5110712;28;20031;-71
2022/02/28 00:55:29;;;;;;;16.58;8.98;;;;;;;3.24;56.09;101432.09;5109749;28;20028;-71
2022/02/28 00:57:55;;;;;;;16.75;8.55;;;;;;;3.39;56.08;101454.47;5109975;28;20039;-72
2022/02/28 01:00:22;;;;;;;15.15;8.77;;;;;;;3.42;56.01;101459.66;5113019;28;20037;-71
2022/02/28 01:02:48;;;;;;;18.75;9.00;;;;;;;3.39;55.94;101449.16;5099849;28;20104;-72
2022/02/28 01:05:15;;;;;;;14.65;9.43;;;;;;;3.42;55.68;101446.38;5112610;28;20035;-72
2022/02/28 01:07:41;;;;;;;17.35;8.80;;;;;;;3.38;56.08;101445.63;5110975;28;20038;-72
2022/02/28 01:10:08;;;;;;;17.38;8.93;;;;;;;3.40;56.37;101446.44;5093591;28;20526;-71
2022/02/28 01:12:34;;;;;;;17.30;9.40;;;;;;;3.34;56.39;101433.44;5110362;28;20046;-72
2022/02/28 01:15:00;;;;;;;16.33;9.23;;;;;;;3.38;56.33;101442.97;5111256;27;20067;-71
2022/02/28 01:17:26;;;;;;;16.85;9.32;;;;;;;3.34;56.24;101429.91;5110865;28;20036;-72
2022/02/28 01:19:51;;;;;;;17.85;8.95;;;;;;;3.33;56.42;101434.38;5110551;28;20031;-72
2022/02/28 01:22:17;;;;;;;14.13;8.55;;;;;;;3.29;56.46;101416.00;5111230;28;20019;-72
2022/02/28 01:24:42;;;;;;;13.90;8.25;;;;;;;3.28;56.83;101414.25;5110710;28;20088;-72
2022/02/28 01:27:09;;;;;;;15.27;8.73;;;;;;;3.29;57.04;101416.84;5104031;28;20047;-72
2022/02/28 01:29:35;;;;;;;17.38;8.90;;;;;;;3.36;57.13;101422.78;5110425;28;20076;-70
2022/02/28 01:32:01;;;;;;;14.65;8.82;;;;;;;3.33;57.01;101426.41;5110286;28;20479;-71
2022/02/28 01:34:26;;;;;;;16.30;9.48;;;;;;;3.30;57.36;101421.25;5110537;28;20415;-71
2022/02/28 01:36:52;;;;;;;16.10;8.60;;;;;;;3.30;57.51;101423.91;5110253;28;20058;-72
2022/02/28 01:39:17;;;;;;;16.65;9.10;;;;;;;3.29;57.71;101418.66;5109258;28;20108;-72
2022/02/28 01:41:43;;;;;;;16.83;8.35;;;;;;;3.32;58.02;101422.03;5110674;28;20023;-71
2022/02/28 01:44:09;;;;;;;13.85;7.80;;;;;;;3.34;58.07;101417.53;5110088;28;20040;-72
2022/02/28 01:46:37;;;;;;;14.75;8.93;;;;;;;3.35;57.94;101418.41;5100437;28;20391;-72
2022/02/28 01:49:03;;;;;;;15.68;8.65;;;;;;;3.40;57.46;101424.38;5110279;28;20057;-71
2022/02/28 01:51:28;;;;;;;16.23;8.30;;;;;;;3.39;57.97;101422.66;5110231;28;20028;-71
2022/02/28 01:53:54;;;;;;;15.20;8.88;;;;;;;3.41;58.28;101416.34;5095243;28;20031;-72
2022/02/28 01:56:21;;;;;;;13.32;7.93;;;;;;;3.43;58.04;101424.25;5108972;28;20038;-72
2022/02/28 01:58:46;;;;;;;13.57;7.93;;;;;;;3.40;58.04;101411.09;5109624;28;20395;-72
2022/02/28 02:01:11;;;;;;;14.75;8.02;;;;;;;3.41;58.49;101411.03;5109384;28;20023;-72
2022/02/28 02:03:37;;;;;;;14.25;8.13;;;;;;;3.44;58.29;101418.88;5100156;28;20040;-72
2022/02/28 02:06:07;;;;;;;12.98;7.78;;;;;;;3.35;58.49;101395.38;5110312;28;20043;-77
2022/02/28 02:08:33;;;;;;;14.10;7.35;;;;;;;3.47;58.54;101410.81;5110773;28;20023;-77
2022/02/28 02:11:00;;;;;;;13.77;7.93;;;;;;;3.48;58.80;101415.16;5110690;28;20490;-77
2022/02/28 02:13:27;;;;;;;12.15;7.13;;;;;;;3.51;58.57;101407.09;5110346;28;20530;-78
2022/02/28 02:15:53;;;;;;;14.75;8.40;;;;;;;3.47;58.73;101394.00;5100989;28;20020;-77
2022/02/28 02:18:19;;;;;;;15.18;7.88;;;;;;;3.48;58.99;101396.59;5098893;28;20483;-78
2022/02/28 02:20:44;;;;;;;11.25;6.97;;;;;;;3.54;58.65;101406.09;5098330;28;20044;-76
2022/02/28 02:23:12;;;;;;;13.23;7.05;;;;;;;3.49;58.87;101389.53;5110373;28;20551;-76
2022/02/28 02:25:38;;;;;;;15.48;8.50;;;;;;;3.49;58.43;101382.44;5103911;28;20066;-78
2022/02/28 02:28:06;;;;;;;12.90;7.80;;;;;;;3.50;58.50;101377.97;5107863;28;20028;-76
2022/02/28 02:30:32;;;;;;;12.20;7.05;;;;;;;3.55;58.45;101378.66;5110189;28;20019;-78
2022/02/28 02:32:58;;;;;;;15.00;8.05;;;;;;;3.55;58.09;101390.09;5110380;28;20099;-78
2022/02/28 02:35:24;;;;;;;16.52;7.75;;;;;;;3.48;57.85;101378.03;5095609;28;20028;-77
2022/02/28 02:37:49;;;;;;;14.32;8.07;;;;;;;3.54;57.94;101383.09;5110373;28;20027;-77
2022/02/28 02:40:15;;;;;;;16.85;8.27;;;;;;;3.53;57.69;101376.06;5092918;28;20088;-77
2022/02/28 02:42:41;;;;;;;12.23;7.30;;;;;;;3.56;57.37;101383.91;5110222;28;20043;-78
2022/02/28 02:45:07;;;;;;;14.40;8.40;;;;;;;3.65;57.42;101385.28;5110805;28;20015;-77
2022/02/28 02:47:33;;;;;;;11.93;7.18;;;;;;;3.61;57.59;101381.91;5110706;28;20036;-77
2022/02/28 02:49:58;;;;;;;15.80;7.88;;;;;;;3.60;57.53;101384.63;5110502;28;20019;-78
2022/02/28 02:52:24;;;;;;;14.60;7.38;;;;;;;3.55;57.44;101370.69;5101138;28;20028;-78
2022/02/28 02:54:50;;;;;;;16.80;8.32;;;;;;;3.48;57.70;101372.72;5110313;28;20053;-77
2022/02/28 02:57:18;;;;;;;12.38;7.35;;;;;;;3.55;57.60;101376.00;5100495;28;20035;-77
2022/02/28 02:59:43;;;;;;;12.77;7.53;;;;;;;3.52;57.65;101374.31;5110034;28;20019;-77
2022/02/28 03:02:09;;;;;;;12.90;6.97;;;;;;;3.55;57.67;101374.19;5110160;28;20375;-77
2022/02/28 03:04:35;;;;;;;13.65;7.30;;;;;;;3.59;57.83;101383.78;5110607;28;20019;-77
2022/02/28 03:07:00;;;;;;;11.05;7.15;;;;;;;3.58;57.99;101386.50;5112069;28;20028;-78
2022/02/28 03:09:25;;;;;;;14.52;7.93;;;;;;;3.63;57.80;101393.31;5113684;28;20027;-75
2022/02/28 03:11:51;;;;;;;15.45;7.95;;;;;;;3.51;58.13;101369.97;5107339;28;20390;-77
2022/02/28 03:14:16;;;;;;;16.38;7.72;;;;;;;3.54;58.02;101375.13;5101084;28;20491;-71
2022/02/28 03:16:42;;;;;;;12.15;7.57;;;;;;;3.55;58.40;101381.31;5109844;28;20483;-72
2022/02/28 03:19:07;;;;;;;15.02;8.32;;;;;;;3.52;58.33;101374.31;5111806;28;20433;-72
2022/02/28 03:21:33;;;;;;;13.75;7.90;;;;;;;3.60;58.25;101374.00;5111689;28;20501;-72
2022/02/28 03:23:58;;;;;;;15.13;8.02;;;;;;;3.53;58.32;101369.91;5099485;28;20031;-72
2022/02/28 03:26:24;;;;;;;12.88;7.25;;;;;;;3.61;58.78;101383.72;5111135;28;20035;-73
2022/02/28 03:28:50;;;;;;;11.52;7.20;;;;;;;3.61;58.76;101386.38;5102435;28;20127;-70
2022/02/28 03:31:15;;;;;;;15.65;8.73;;;;;;;3.59;59.09;101388.22;5106991;28;20034;-72
2022/02/28 03:33:41;;;;;;;14.13;7.53;;;;;;;3.49;59.03;101368.31;5096467;28;20032;-71
2022/02/28 03:36:06;;;;;;;13.40;7.50;;;;;;;3.56;58.78;101369.78;5111022;28;20028;-72
2022/02/28 03:38:32;;;;;;;13.50;7.72;;;;;;;3.55;58.71;101368.06;5111206;28;20058;-71
2022/02/28 03:40:58;;;;;;;14.18;7.78;;;;;;;3.52;59.04;101370.84;5104533;28;20022;-72
2022/02/28 03:43:23;;;;;;;12.70;7.43;;;;;;;3.46;58.98;101357.81;5111791;28;20391;-71
2022/02/28 03:45:48;;;;;;;16.25;8.57;;;;;;;3.45;59.07;101358.75;5111816;28;20027;-71
2022/02/28 03:48:14;;;;;;;15.40;7.78;;;;;;;3.50;59.04;101375.31;5111286;28;20035;-71
2022/02/28 03:50:41;;;;;;;14.00;8.40;;;;;;;3.45;58.79;101358.75;5102177;28;20026;-72
2022/02/28 03:53:07;;;;;;;14.05;7.53;;;;;;;3.51;58.77;101369.13;5108762;28;20098;-71
2022/02/28 03:55:32;;;;;;;12.60;7.68;;;;;;;3.47;58.96;101370.16;5104703;28;20098;-71
2022/02/28 03:57:58;;;;;;;14.52;7.75;;;;;;;3.47;59.00;101364.84;5111426;28;20437;-71
2022/02/28 04:00:23;;;;;;;15.57;7.95;;;;;;;3.53;58.80;101377.84;5111616;28;20023;-72
2022/02/28 04:02:49;;;;;;;15.82;7.93;;;;;;;3.43;58.78;101360.59;5091446;28;20024;-70
2022/02/28 04:05:16;;;;;;;13.02;7.68;;;;;;;3.47;58.96;101371.03;5111070;28;20108;-72
2022/02/28 04:07:43;;;;;;;11.93;7.63;;;;;;;3.48;58.36;101369.25;5109104;28;20028;-71
2022/02/28 04:10:09;;;;;;;13.52;7.35;;;;;;;3.47;58.98;101368.38;5109519;28;20077;-71
2022/02/28 04:12:35;;;;;;;12.00;7.90;;;;;;;3.39;58.74;101357.22;5110424;28;20023;-70
2022/02/28 04:15:01;;;;;;;12.75;7.45;;;;;;;3.47;58.87;101370.16;5096870;28;20145;-71
2022/02/28 04:17:26;;;;;;;12.65;7.88;;;;;;;3.39;58.63;101359.00;5110611;28;20023;-71
2022/02/28 04:19:52;;;;;;;13.55;8.07;;;;;;;3.41;58.39;101359.78;5098285;28;20538;-71
2022/02/28 04:22:17;;;;;;;11.98;7.75;;;;;;;3.35;58.41;101360.09;5111105;28;20063;-73
2022/02/28 04:24:46;;;;;;;14.50;7.47;;;;;;;3.34;58.18;101350.38;5110872;28;20416;-72
2022/02/28 04:27:11;;;;;;;10.63;7.28;;;;;;;3.38;58.39;101352.84;5101322;28;20042;-71
2022/02/28 04:29:37;;;;;;;11.50;6.88;;;;;;;3.44;58.22;101364.97;5110647;28;20024;-73
2022/02/28 04:32:04;;;;;;;14.43;7.75;;;;;;;3.38;58.43;101357.28;5096014;28;20035;-71
2022/02/28 04:34:30;;;;;;;10.75;7.00;;;;;;;3.41;58.12;101363.31;5110530;28;20025;-72
2022/02/28 04:36:55;;;;;;;13.68;6.90;;;;;;;3.43;58.10;101363.25;5110787;28;20024;-72
2022/02/28 04:39:21;;;;;;;14.15;6.90;;;;;;;3.44;58.14;101370.28;5110913;28;20062;-73
2022/02/28 04:41:46;;;;;;;12.93;6.93;;;;;;;3.43;58.21;101357.94;5098584;28;20039;-72
2022/02/28 04:44:12;;;;;;;15.40;6.82;;;;;;;3.45;58.05;101374.69;5110459;28;20035;-71
2022/02/28 04:46:37;;;;;;;14.73;7.18;;;;;;;3.43;57.94;101369.44;5110195;28;20072;-71
2022/02/28 04:49:03;;;;;;;11.30;6.55;;;;;;;3.35;58.29;101363.56;5092794;28;20028;-71
2022/02/28 04:51:28;;;;;;;11.70;6.47;;;;;;;3.32;58.21;101357.56;5106494;28;20024;-71
2022/02/28 04:53:54;;;;;;;12.40;6.38;;;;;;;3.41;57.88;101375.69;5110291;28;20106;-72
2022/02/28 04:56:20;;;;;;;11.18;5.97;;;;;;;3.42;58.29;101375.63;5110432;28;20034;-71
2022/02/28 04:58:45;;;;;;;14.20;5.68;;;;;;;3.34;57.89;101363.63;5110161;28;20110;-70
2022/02/28 05:01:12;;;;;;;10.05;5.45;;;;;;;3.34;57.69;101367.16;5110086;28;20034;-71
2022/02/28 05:03:37;;;;;;;11.75;5.47;;;;;;;3.36;57.59;101369.75;5110457;28;20047;-73
2022/02/28 05:06:03;;;;;;;12.82;5.40;;;;;;;3.36;57.49;101378.56;5095464;28;20051;-72
2022/02/28 05:08:28;;;;;;;10.45;5.22;;;;;;;3.28;57.43;101367.41;5109850;28;20131;-72
2022/02/28 05:10:54;;;;;;;9.88;4.60;;;;;;;3.39;57.14;101389.03;5110323;28;20023;-72
2022/02/28 05:13:28;;;;;;;12.35;5.45;;;;;;;3.31;57.36;101383.19;5110033;28;20032;-72
2022/02/28 05:15:57;;;;;;;8.20;4.38;;;;;;;3.29;56.87;101379.72;5103542;28;20024;-73
2022/02/28 05:18:22;;;;;;;14.73;5.82;;;;;;;3.35;56.87;101389.25;5110305;28;20031;-73
2022/02/28 05:20:48;;;;;;;13.25;5.50;;;;;;;3.29;57.26;101384.19;5109353;28;20059;-71
2022/02/28 05:23:13;;;;;;;11.75;4.50;;;;;;;3.28;56.79;101393.03;5109505;28;20449;-72
2022/02/28 05:25:39;;;;;;;9.90;5.00;;;;;;;3.33;56.93;101393.72;5108758;28;20023;-71
2022/02/28 05:28:04;;;;;;;14.25;4.55;;;;;;;3.31;56.42;101393.78;5109283;28;20062;-73
2022/02/28 05:30:30;;;;;;;15.95;5.40;;;;;;;3.31;56.59;101392.91;5099038;28;20042;-72
2022/02/28 05:32:55;;;;;;;10.23;4.57;;;;;;;3.29;56.57;101395.63;5109431;28;20023;-71
2022/02/28 05:35:21;;;;;;;10.57;5.25;;;;;;;3.28;56.70;101393.03;5108318;28;20027;-72
2022/02/28 05:37:46;;;;;;;9.48;4.80;;;;;;;3.28;57.03;101393.03;5108226;28;20157;-72
2022/02/28 05:40:12;;;;;;;12.18;5.45;;;;;;;3.33;56.68;101404.34;5109313;28;20160;-72
2022/02/28 05:42:38;;;;;;;14.50;5.05;;;;;;;3.32;56.58;101403.47;5109544;28;20055;-72
2022/02/28 05:45:05;;;;;;;12.32;5.13;;;;;;;3.35;56.78;101405.16;5099218;28;20075;-70
2022/02/28 05:47:31;;;;;;;9.93;4.90;;;;;;;3.32;56.90;101398.16;5109093;28;20031;-69
2022/02/28 05:49:56;;;;;;;11.10;5.38;;;;;;;3.30;56.74;101400.03;5109212;28;20056;-69
2022/02/28 05:52:22;;;;;;;11.07;4.97;;;;;;;3.33;56.69;101407.88;5108919;28;20034;-69
2022/02/28 05:54:47;;;;;;;12.15;5.53;;;;;;;3.26;56.77;101400.22;5109131;28;20020;-69
2022/02/28 05:57:13;;;;;;;10.15;5.05;;;;;;;3.24;56.91;101400.28;5109197;28;20027;-69
2022/02/28 05:59:38;;;;;;;10.60;4.78;;;;;;;3.25;56.83;101399.34;5108888;28;20479;-70
2022/02/28 06:02:04;;;;;;;14.25;4.90;;;;;;;3.23;56.68;101406.50;5108938;28;20032;-69
2022/02/28 06:04:29;;;;;;;11.18;5.60;;;;;;;3.30;57.18;101413.28;5091622;28;20039;-70
2022/02/28 06:06:55;;;;;;;10.50;5.00;;;;;;;3.37;56.90;101421.84;5109135;28;20636;-70
2022/02/28 06:09:20;;;;;;;12.23;5.18;;;;;;;3.32;56.85;101406.13;5108884;28;20020;-70
2022/02/28 06:11:45;;;;;;;19.02;5.68;;;;;;;3.35;56.92;101410.44;5109068;28;20045;-69
2022/02/28 06:14:11;;;;;;;12.48;5.80;;;;;;;3.38;56.81;101411.16;5109184;28;20042;-75
2022/02/28 06:16:38;;;;;;;11.35;5.10;;;;;;;3.41;56.44;101411.03;5109851;28;20023;-75
2022/02/28 06:19:04;;;;;;;17.42;5.25;;;;;;;3.40;56.47;101413.75;5094840;28;20428;-79
2022/02/28 06:21:30;;;;;;;18.17;5.35;;;;;;;3.40;56.01;101403.16;5109787;28;20047;-75
2022/02/28 06:23:58;;;;;;;15.68;4.93;;;;;;;3.40;55.98;101395.19;5109988;28;20557;-78
2022/02/28 06:26:23;;;;;;;15.23;5.50;;;;;;;3.37;56.03;101393.53;5109611;28;20371;-76
2022/02/28 06:28:49;;;;;;;29.88;5.60;;;;;;;3.40;55.26;101397.84;5109537;28;20032;-76
2022/02/28 06:31:14;;;;;;;15.60;4.88;;;;;;;3.36;55.35;101393.59;5110031;28;20028;-77
2022/02/28 06:33:40;;;;;;;15.50;5.07;;;;;;;3.35;54.85;101390.09;5101065;28;20531;-76
2022/02/28 06:36:06;;;;;;;19.08;6.05;;;;;;;3.38;54.60;101397.91;5093370;28;20024;-75
2022/02/28 06:38:31;;;;;;;19.17;5.50;;;;;;;3.36;54.11;101398.91;5109275;28;20483;-75
2022/02/28 06:40:57;;;;;;;10.55;4.60;;;;;;;3.33;54.22;101402.56;5109557;28;20027;-76
2022/02/28 06:43:24;;;;;;;9.77;4.15;;;;;;;3.33;53.33;101402.56;5103351;28;20072;-70
2022/02/28 06:45:51;;;;;;;11.98;4.13;;;;;;;3.40;53.45;101411.09;5091108;28;20047;-69
2022/02/28 06:48:17;;;;;;;12.45;4.97;;;;;;;3.42;53.87;101417.22;5107619;28;20031;-71
2022/02/28 06:50:45;;;;;;;11.25;4.60;;;;;;;3.43;53.24;101405.69;5112396;28;20059;-70
2022/02/28 06:53:11;;;;;;;9.30;4.28;;;;;;;3.46;53.38;101405.56;5097707;28;20494;-70
2022/02/28 06:55:43;;;;;;;17.25;4.68;;;;;;;3.52;53.40;101406.16;5112028;28;20020;-70
2022/02/28 06:58:09;;;;;;;11.00;4.53;;;;;;;3.52;52.92;101405.31;5113064;28;20395;-76
2022/02/28 07:00:35;;;;;;;17.50;4.78;;;;;;;3.63;52.39;101411.00;5112901;28;20029;-76
2022/02/28 07:03:00;;;;;;;12.23;4.68;;;;;;;3.63;52.81;101411.00;5113288;28;20023;-74
2022/02/28 07:05:26;;;;;;;15.23;5.15;;;;;;;3.61;52.61;101411.06;5098213;28;20514;-76
2022/02/28 07:07:52;;;;;;;11.48;3.58;;;;;;;3.70;52.28;101416.00;5112722;28;20126;-76
2022/02/28 07:10:17;;;;;;;11.32;4.55;;;;;;;3.69;52.26;101405.44;5106020;28;20139;-76
2022/02/28 07:12:43;;;;;;;14.05;4.03;;;;;;;3.69;52.50;101413.41;5112902;28;20052;-77
2022/02/28 07:15:09;;;;;;;11.07;4.40;;;;;;;3.76;52.31;101410.44;5113038;28;20031;-76
2022/02/28 07:17:35;;;;;;;10.65;3.75;;;;;;;3.77;52.33;101408.66;5113034;28;20057;-76
2022/02/28 07:20:00;;;;;;;11.30;4.97;;;;;;;3.76;51.86;101401.59;5112823;28;20077;-77
2022/02/28 07:22:26;;;;;;;11.50;3.60;;;;;;;3.84;52.06;101402.16;5110335;28;20440;-76
2022/02/28 07:24:51;;;;;;;8.55;4.05;;;;;;;3.97;52.06;101416.63;5113152;28;20467;-77
2022/02/28 07:27:17;;;;;;;15.27;4.47;;;;;;;3.99;52.03;101409.44;5113099;28;20487;-77
2022/02/28 07:29:42;;;;;;;9.32;3.80;;;;;;;3.96;52.19;101396.28;5112545;27;20031;-77
2022/02/28 07:32:08;;;;;;;17.08;4.22;;;;;;;4.05;52.28;101394.13;5112219;28;20030;-77
2022/02/28 07:34:33;;;;;;;10.80;3.70;;;;;;;4.24;52.36;101412.75;5112269;28;20022;-76
2022/02/28 07:36:58;;;;;;;8.52;4.00;;;;;;;4.34;52.31;101390.16;5112337;28;20031;-76
2022/02/28 07:39:24;;;;;;;9.82;3.63;;;;;;;4.55;51.83;101389.19;5112227;28;20479;-76
2022/02/28 07:41:50;;;;;;;7.18;3.88;;;;;;;4.75;51.85;101413.88;5102364;28;20410;-77
2022/02/28 07:44:16;;;;;;;12.32;4.55;;;;;;;5.05;51.15;101418.69;5103290;28;20759;-77
2022/02/28 07:46:42;;;;;;;9.57;4.25;;;;;;;5.30;50.49;101401.50;5113021;28;20110;-76
2022/02/28 07:49:07;;;;;;;17.83;4.32;;;;;;;5.64;50.09;101388.22;5100016;28;20026;-77
2022/02/28 07:51:33;;;;;;;15.85;4.18;;;;;;;6.13;48.99;101400.75;5097481;28;20048;-77
2022/02/28 07:53:58;;;;;;;9.13;4.05;;;;;;;6.66;47.66;101392.56;5110649;28;20077;-77
2022/02/28 07:56:25;;;;;;;14.40;4.30;;;;;;;7.08;46.53;101390.19;5112046;28;20046;-77
2022/02/28 07:58:51;;;;;;;7.00;4.30;;;;;;;7.63;45.81;101391.41;5112423;28;20563;-77
2022/02/28 08:01:16;;;;;;;11.60;4.38;;;;;;;8.14;44.76;101384.75;5111825;28;20027;-76
2022/02/28 08:03:42;;;;;;;14.70;5.38;;;;;;;8.70;43.29;101384.78;5111999;28;20028;-77
2022/02/28 08:06:07;;;;;;;10.15;4.30;;;;;;;9.01;42.38;101387.25;5102484;28;20020;-77
2022/02/28 08:08:33;;;;;;;12.80;3.90;;;;;;;9.27;41.70;101384.59;5112083;28;20015;-77
2022/02/28 08:10:58;;;;;;;23.45;5.10;;;;;;;9.60;41.21;101373.47;5111328;28;20020;-78
2022/02/28 08:13:23;;;;;;;11.50;4.38;;;;;;;10.19;40.48;101377.47;5102513;28;20042;-78
2022/02/28 08:15:49;;;;;;;11.13;4.20;;;;;;;10.06;40.37;101379.25;5111596;28;20027;-78
2022/02/28 08:18:15;;;;;;;23.38;4.80;;;;;;;9.87;40.64;101393.00;5111528;27;20047;-77
2022/02/28 08:20:41;;;;;;;10.73;4.90;;;;;;;9.43;41.22;101399.63;5111282;28;20506;-77
2022/02/28 08:23:07;;;;;;;14.75;4.75;;;;;;;9.48;42.12;101393.00;5104875;28;20077;-77
2022/02/28 08:25:33;;;;;;;10.40;5.30;;;;;;;9.48;42.09;101382.31;5111789;28;20372;-77
2022/02/28 08:27:59;;;;;;;11.63;4.68;;;;;;;9.25;42.33;101383.84;5111750;28;20085;-76
2022/02/28 08:30:24;;;;;;;11.82;4.65;;;;;;;8.88;43.18;101397.88;5108844;28;20032;-77
2022/02/28 08:32:50;;;;;;;16.95;4.75;;;;;;;8.46;44.20;101389.88;5111632;28;20134;-77
2022/02/28 08:35:18;;;;;;;9.75;4.68;;;;;;;7.95;45.19;101394.81;5109913;28;20031;-78
2022/02/28 08:37:45;;;;;;;10.02;4.38;;;;;;;7.64;46.80;101397.59;5111341;28;20019;-77
2022/02/28 08:40:12;;;;;;;8.80;4.45;;;;;;;7.36;47.34;101397.47;5110645;28;20372;-77
2022/02/28 08:42:37;;;;;;;9.80;4.75;;;;;;;7.15;48.50;101404.88;5098967;28;20077;-77
2022/02/28 08:45:07;;;;;;;8.70;4.65;;;;;;;7.03;49.15;101390.44;5107235;28;20467;-77
2022/02/28 08:47:32;;;;;;;14.55;4.40;;;;;;;6.98;48.91;101386.31;5099390;28;20111;-77
2022/02/28 08:50:00;;;;;;;8.85;4.63;;;;;;;6.93;49.40;101399.91;5111299;27;20110;-76
2022/02/28 08:52:26;;;;;;;9.82;4.90;;;;;;;6.85;50.46;101391.47;5111066;28;20033;-77
2022/02/28 08:54:52;;;;;;;17.25;4.82;;;;;;;6.74;50.60;101406.34;5095885;28;20115;-78
2022/02/28 08:57:18;;;;;;;12.35;4.50;;;;;;;6.75;50.65;101408.91;5110900;28;20107;-77
2022/02/28 08:59:43;;;;;;;7.50;4.60;;;;;;;6.69;51.11;101414.59;5110760;28;20024;-77
2022/02/28 09:02:09;;;;;;;9.50;4.32;;;;;;;6.53;51.25;101405.72;5095915;28;20118;-77
2022/02/28 09:04:34;;;;;;;9.35;4.00;;;;;;;6.48;51.75;101407.75;5111207;28;20019;-77
2022/02/28 09:07:00;;;;;;;9.50;4.60;;;;;;;6.45;52.62;101407.91;5106573;28;20019;-78
2022/02/28 09:09:26;;;;;;;13.05;4.97;;;;;;;6.46;52.72;101396.34;5110545;28;20055;-77
2022/02/28 09:11:52;;;;;;;12.90;5.25;;;;;;;6.56;52.67;101402.00;5098501;28;20097;-76
2022/02/28 09:14:17;;;;;;;10.88;4.68;;;;;;;6.71;52.93;101401.19;5098583;28;20026;-77
2022/02/28 09:16:43;;;;;;;8.98;3.88;;;;;;;6.82;52.82;101404.97;5105223;28;20032;-79
2022/02/28 09:19:09;;;;;;;6.50;3.65;;;;;;;6.94;52.42;101401.63;5104747;28;20027;-77
2022/02/28 09:21:36;;;;;;;6.85;4.20;;;;;;;7.17;52.55;101400.34;5109686;28;20044;-78
2022/02/28 09:24:03;;;;;;;14.80;4.78;;;;;;;7.38;52.50;101392.94;5109854;28;20028;-79
2022/02/28 09:26:28;;;;;;;8.05;4.53;;;;;;;7.81;51.87;101397.47;5110181;28;20081;-79
2022/02/28 09:28:54;;;;;;;18.13;5.03;;;;;;;8.52;49.69;101402.84;5109967;28;20473;-79
2022/02/28 09:31:19;;;;;;;10.70;4.65;;;;;;;8.68;48.54;101400.09;5110023;28;20548;-78
2022/02/28 09:33:45;;;;;;;11.10;4.72;;;;;;;8.34;49.30;101400.44;5110658;28;20068;-77
2022/02/28 09:36:10;;;;;;;10.95;4.63;;;;;;;8.13;49.60;101415.09;5098333;28;20028;-79
2022/02/28 09:38:36;;;;;;;13.60;5.00;;;;;;;7.92;50.46;101406.56;5110703;28;20090;-79
2022/02/28 09:41:04;;;;;;;11.40;4.82;;;;;;;7.81;50.87;101406.34;5100828;28;20490;-79
2022/02/28 09:43:30;;;;;;;9.38;4.80;;;;;;;7.80;51.54;101422.47;5104170;28;20029;-78
2022/02/28 09:45:56;;;;;;;10.25;4.47;;;;;;;8.26;50.48;101421.47;5098282;28;20111;-78
2022/02/28 09:48:23;;;;;;;10.48;5.25;;;;;;;8.54;49.95;101414.31;5110143;28;20080;-78
2022/02/28 09:50:49;;;;;;;13.10;5.38;;;;;;;8.73;49.82;101411.34;5110305;28;20153;-78
2022/02/28 09:53:14;;;;;;;12.05;4.93;;;;;;;8.63;49.26;101407.53;5110955;28;20106;-77
2022/02/28 09:55:39;;;;;;;10.23;5.20;;;;;;;8.37;49.94;101418.97;5100945;28;20030;-79
2022/02/28 09:58:05;;;;;;;10.85;4.88;;;;;;;8.22;50.16;101414.59;5110121;28;20153;-78
2022/02/28 10:00:31;;;;;;;16.20;5.13;;;;;;;7.92;51.32;101432.41;5110390;28;20032;-79
2022/02/28 10:02:57;;;;;;;8.48;4.53;;;;;;;7.63;52.52;101422.56;5107878;28;20095;-79
2022/02/28 10:05:23;;;;;;;7.57;4.50;;;;;;;7.38;54.09;101430.28;5096502;28;20417;-79
2022/02/28 10:07:57;;;;;;;9.63;4.60;;;;;;;7.18;55.31;101414.53;5110608;28;20044;-78
2022/02/28 10:10:25;;;;;;;10.13;4.63;;;;;;;6.98;56.59;101429.84;5110991;28;20092;-77
2022/02/28 10:12:52;;;;;;;7.60;4.25;;;;;;;6.80;56.68;101429.97;5094302;28;20036;-70
2022/02/28 10:15:21;;;;;;;8.57;5.28;;;;;;;6.65;57.61;101429.00;5108594;28;20028;-71
2022/02/28 10:17:54;;;;;;;7.95;4.50;;;;;;;6.43;59.15;101436.47;5108065;28;20788;-70
2022/02/28 10:20:47;;;;;;;12.18;5.38;;;;;;;6.24;60.09;101443.69;5100390;28;20126;-72
2022/02/28 10:23:13;;;;;;;15.80;6.25;;;;;;;6.07;60.05;101442.84;5109257;28;20047;-70
2022/02/28 10:25:41;;;;;;;6.90;4.65;;;;;;;5.88;59.45;101436.72;5113115;28;20060;-71
2022/02/28 10:28:14;;;;;;;12.43;5.70;;;;;;;5.79;59.77;101438.03;5112549;28;20038;-71
2022/02/28 10:30:51;;;;;;;12.50;5.05;;;;;;;5.71;60.62;101440.19;5112853;28;20167;-71
2022/02/28 10:33:17;;;;;;;14.30;4.10;;;;;;;5.64;61.74;101436.13;5108204;28;20134;-71
2022/02/28 10:36:00;;;;;;;11.27;4.20;;;;;;;5.53;63.01;101424.28;5097666;28;20108;-70
2022/02/28 10:38:33;;;;;;;8.33;4.10;;;;;;;5.49;63.22;101438.69;5111642;28;20034;-70
2022/02/28 10:41:00;;;;;;;7.00;3.90;;;;;;;5.45;63.42;101447.75;5112526;28;20062;-71
2022/02/28 10:43:34;;;;;;;6.50;3.30;;;;;;;5.34;64.66;101450.06;5112196;28;20027;-71
2022/02/28 10:46:14;;;;;;;11.07;4.25;;;;;;;5.31;66.35;101461.72;5112211;28;20078;-71
2022/02/28 10:48:40;;;;;;;11.65;4.22;;;;;;;5.24;67.11;101462.09;5105678;28;20789;-71
2022/02/28 10:51:15;;;;;;;7.38;3.97;;;;;;;5.13;69.99;101465.28;5112281;28;20076;-71
2022/02/28 10:53:41;;;;;;;8.77;4.00;;;;;;;4.99;73.86;101481.00;5108443;28;20336;-71
2022/02/28 10:56:07;;;;;;;8.50;4.45;;;;;;;4.67;79.28;101460.34;5112511;28;20020;-72
2022/02/28 10:58:34;;;;;;;7.88;4.60;;;;;;;4.75;81.81;101474.16;5108501;28;20102;-77
2022/02/28 11:01:05;;;;;;;8.45;4.80;;;;;;;4.74;83.69;101478.59;5106052;28;20031;-76
2022/02/28 11:03:47;;;;;;;9.55;4.97;;;;;;;4.64;85.85;101469.31;5112718;28;20038;-75
2022/02/28 11:06:19;;;;;;;7.45;5.15;;;;;;;4.63;87.04;101478.22;5110463;28;20047;-76
2022/02/28 11:08:46;;;;;;;8.38;5.05;;;;;;;4.53;87.48;101479.56;5112593;28;20042;-76
2022/02/28 11:11:14;;;;;;;11.65;5.82;;;;;;;4.49;86.90;101477.13;5098109;28;20024;-77
2022/02/28 11:13:44;;;;;;;13.02;6.30;;;;;;;4.41;87.11;101482.78;5095126;28;20062;-77
2022/02/28 11:17:09;;;;;;;9.73;6.05;;;;;;;4.33;87.84;101476.91;5112423;27;20029;-79
2022/02/28 11:19:07;;;;;;;9.90;5.95;;;;;;;4.32;88.19;101469.06;5094958;28;20063;-76
2022/02/28 11:21:34;;;;;;;10.27;6.38;;;;;;;4.33;88.25;101476.06;5100204;28;20556;-77
2022/02/28 11:24:00;;;;;;;8.10;6.05;;;;;;;4.40;88.28;101481.06;5105605;28;20035;-77